Flight Track Log - Related Links

Times and Time Zones

All times are in EDT time to prevent confusion due to time zone crossing. See the EJA396 flight status page for this flight to view local times or setup timezone preferences in your user account.

Time Position Orientation Groundspeed Altitude Reporting Facility
EDT Latitude Longitude Course Direction KTS MPH feet Rate Location/Type
Sun 10:23:21 AM 44.7378 -85.6486 265° West 213 245 2,900  Level Minneapolis Center
Sun 10:24:23 AM 44.7336 -85.7225 265° West 232 267 3,000 2,710 Climbing Minneapolis Center
Sun 10:25:25 AM 44.7258 -85.8386 265° West 241 277 8,500 4,800 Climbing Minneapolis Center
Sun 10:26:28 AM 44.7186 -85.9458 265° West 268 308 13,000 3,766 Climbing Minneapolis Center
Sun 10:27:42 AM 44.7114 -86.0661 265° West 299 344 17,100 3,529 Climbing Minneapolis Center
Sun 10:28:44 AM 44.7019 -86.2219 265° West 318 366 21,000 1,887 Climbing Minneapolis Center
Sun 10:29:46 AM 44.6911 -86.3708 264° West 367 422 21,000 968 Level Minneapolis Center
Sun 10:30:48 AM 44.6808 -86.5269 265° West 396 456 23,000 2,661 Climbing Minneapolis Center
Sun 10:31:50 AM 44.6683 -86.7031 264° West 386 444 26,500 3,048 Climbing Minneapolis Center
Sun 10:32:52 AM 44.6578 -86.8489 264° West 380 437 29,300 2,304 Climbing Minneapolis Center
Sun 10:33:55 AM 44.6467 -86.9969 264° West 380 437 31,300 1,680 Climbing Minneapolis Center
Sun 10:34:57 AM 44.6356 -87.1472 264° West 386 444 32,800 1,452 Climbing Minneapolis Center
Sun 10:35:59 AM 44.6242 -87.3025 264° West 396 456 34,300 1,463 Climbing Minneapolis Center
Sun 10:37:00 AM 44.6128 -87.4578 264° West 400 460 35,800 1,258 Climbing Minneapolis Center
Sun 10:38:03 AM 44.5981 -87.6442 264° West 401 461 36,900 1,056 Climbing Minneapolis Center
Sun 10:39:05 AM 44.5867 -87.8011 264° West 405 466 38,000 1,016 Climbing Minneapolis Center
Sun 10:40:07 AM 44.5736 -87.9578 263° West 406 467 39,000 968 Climbing Minneapolis Center
Sun 10:41:09 AM 44.5592 -88.1400 264° West 404 465 40,000 484 Climbing Minneapolis Center
Sun 10:42:11 AM 44.5694 -88.2953 275° West 405 466 40,000  Level Minneapolis Center
Sun 10:43:13 AM 44.5914 -88.4575 281° West 420 483 40,000  Level Minneapolis Center
Sun 10:44:15 AM 44.6142 -88.6228 281° West 429 494 40,000  Level Minneapolis Center
Sun 10:45:17 AM 44.6356 -88.7861 280° West 427 491 40,000  Level Minneapolis Center
Sun 10:46:20 AM 44.6578 -88.9500 281° West 429 494 40,000  Level Minneapolis Center
Sun 10:47:34 AM 44.6828 -89.1378 281° West 423 487 40,000  Level Minneapolis Center
Sun 10:48:36 AM 44.7072 -89.3297 280° West 426 490 40,000  Level Minneapolis Center
Sun 10:49:50 AM 44.7275 -89.4944 280° West 428 493 40,000  Level Minneapolis Center
Sun 10:50:53 AM 44.7556 -89.7083 281° West 421 484 40,000  Level Minneapolis Center
Sun 10:51:55 AM 44.7747 -89.8706 280° West 420 483 40,000  Level Minneapolis Center
Sun 10:52:57 AM 44.7956 -90.0331 280° West 422 486 40,000  Level Minneapolis Center
Sun 10:53:58 AM 44.8114 -90.1658 280° West 416 479 40,000  Level Minneapolis Center
Sun 10:55:00 AM 44.8314 -90.3267 280° West 418 481 40,000  Level Minneapolis Center
Sun 10:56:03 AM 44.8567 -90.5439 279° West 417 480 40,000  Level Minneapolis Center
Sun 10:57:05 AM 44.8756 -90.7058 279° West 418 481 40,000  Level Minneapolis Center
Sun 10:58:07 AM 44.8947 -90.8678 280° West 418 481 40,000  Level Minneapolis Center
Sun 10:59:09 AM 44.9117 -91.0253 279° West 415 478 40,000  Level Minneapolis Center
Sun 11:00:11 AM 44.9292 -91.1858 279° West 415 478 40,000  Level Minneapolis Center
Sun 11:01:15 AM 44.9503 -91.3797 279° West 416 479 40,000  Level Minneapolis Center
Sun 11:02:17 AM 44.9694 -91.5411 280° West 418 481 40,000  Level Minneapolis Center
Sun 11:03:19 AM 44.9869 -91.7022 279° West 418 481 40,000  Level Minneapolis Center
Sun 11:04:21 AM 45.0050 -91.8622 279° West 415 478 40,000  Level Minneapolis Center
Sun 11:05:23 AM 45.0208 -92.0208 278° West 411 473 40,000  Level Minneapolis Center
Sun 11:06:25 AM 45.0406 -92.2100 278° West 408 470 40,000  Level Minneapolis Center
Sun 11:07:27 AM 45.0553 -92.3683 278° West 408 470 40,000  Level Minneapolis Center
Sun 11:08:29 AM 45.0700 -92.5253 278° West 406 467 40,000  Level Minneapolis Center
Sun 11:09:31 AM 45.0856 -92.6831 278° West 407 468 40,000  Level Minneapolis Center
Sun 11:10:33 AM 45.0975 -92.8086 278° West 406 467 40,000  Level Minneapolis Center
Sun 11:11:35 AM 45.1117 -92.9658 277° West 406 467 40,000  Level Minneapolis Center
Sun 11:12:38 AM 45.1300 -93.1878 277° West 409 471 40,000  Level Minneapolis Center
Sun 11:13:40 AM 45.1433 -93.3447 277° West 407 468 40,000  Level Minneapolis Center
Sun 11:14:42 AM 45.1558 -93.5019 276° West 406 467 40,000  Level Minneapolis Center
Sun 11:15:43 AM 45.1653 -93.6281 276° West 406 467 40,000  Level Minneapolis Center
Sun 11:16:46 AM 45.1819 -93.8494 276° West 407 468 40,000  Level Minneapolis Center
Sun 11:17:48 AM 45.1925 -94.0058 276° West 404 465 40,000  Level Minneapolis Center
Sun 11:18:50 AM 45.2039 -94.1628 276° West 402 463 40,000  Level Minneapolis Center
Sun 11:19:52 AM 45.2142 -94.3192 275° West 402 463 40,000  Level Minneapolis Center
Sun 11:20:54 AM 45.2253 -94.4758 276° West 401 461 40,000  Level Minneapolis Center
Sun 11:21:56 AM 45.2356 -94.6333 275° West 402 463 40,000  Level Minneapolis Center
Sun 11:22:58 AM 45.2461 -94.8017 275° West 401 461 40,000  Level Minneapolis Center
Sun 11:24:00 AM 45.2581 -94.9894 275° West 401 461 40,000  Level Minneapolis Center
Sun 11:25:02 AM 45.2678 -95.1436 275° West 397 457 40,000  Level Minneapolis Center
Sun 11:26:04 AM 45.2764 -95.2978 275° West 395 455 40,000  Level Minneapolis Center
Sun 11:27:06 AM 45.2858 -95.4517 275° West 393 452 40,000  Level Minneapolis Center
Sun 11:28:20 AM 45.3011 -95.6022 278° West 389 448 40,000  Level Minneapolis Center
Sun 11:29:23 AM 45.3183 -95.7797 278° West 382 440 40,000  Level Minneapolis Center
Sun 11:30:25 AM 45.3356 -95.9608 278° West 385 443 40,000  Level Minneapolis Center
Sun 11:31:27 AM 45.3494 -96.1075 278° West 378 435 40,000  Level Minneapolis Center
Sun 11:32:29 AM 45.3628 -96.2581 277° West 384 442 40,000  Level Minneapolis Center
Sun 11:33:31 AM 45.3758 -96.4078 277° West 384 442 40,000  Level Minneapolis Center
Sun 11:34:33 AM 45.3900 -96.5556 278° West 381 438 40,000  Level Minneapolis Center
Sun 11:35:36 AM 45.4047 -96.7333 277° West 379 436 40,000  Level Minneapolis Center
Sun 11:37:40 AM 45.4294 -97.0281 277° West 375 432 40,000  Level Minneapolis Center
Sun 11:38:42 AM 45.4419 -97.1750 277° West 376 433 40,000  Level Minneapolis Center
Sun 11:39:44 AM 45.4547 -97.3225 277° West 377 434 40,000  Level Minneapolis Center
Sun 11:40:47 AM 45.4692 -97.5000 277° West 377 434 40,000  Level Minneapolis Center
Sun 11:41:49 AM 45.4800 -97.6461 276° West 375 432 40,000  Level Minneapolis Center
Sun 11:42:51 AM 45.4919 -97.7942 277° West 376 433 40,000  Level Minneapolis Center
Sun 11:43:53 AM 45.5025 -97.9397 276° West 373 429 40,000  Level Minneapolis Center
Sun 11:44:55 AM 45.5161 -98.1028 277° West 370 426 40,000  Level Minneapolis Center
Sun 11:45:57 AM 45.5269 -98.2489 276° West 372 428 40,000  Level Minneapolis Center
Sun 11:46:59 AM 45.5372 -98.3944 276° West 370 426 40,000  Level Minneapolis Center
Sun 11:48:13 AM 45.5469 -98.5406 275° West 370 426 40,000  Level Minneapolis Center
Sun 11:49:16 AM 45.5594 -98.7156 276° West 371 427 40,000  Level Minneapolis Center
Sun 11:50:17 AM 45.5717 -98.8622 277° West 372 428 40,000  Level Minneapolis Center
Sun 11:51:20 AM 45.5825 -99.0361 275° West 371 427 40,000  Level Minneapolis Center
Sun 11:52:22 AM 45.5911 -99.1806 275° West 369 425 40,000  Level Minneapolis Center
Sun 11:53:24 AM 45.6006 -99.3242 275° West 367 422 40,000  Level Minneapolis Center
Sun 11:54:26 AM 45.6092 -99.4681 275° West 366 421 40,000  Level Minneapolis Center
Sun 11:55:28 AM 45.6183 -99.6117 275° West 366 421 40,000  Level Minneapolis Center
Sun 11:56:30 AM 45.6286 -99.7856 275° West 367 422 40,000  Level Minneapolis Center
Sun 11:57:32 AM 45.6367 -99.9303 275° West 367 422 40,000  Level Minneapolis Center
Sun 11:58:34 AM 45.6444 -100.0722 275° West 364 419 40,000  Level Minneapolis Center
Sun 11:59:36 AM 45.6528 -100.2158 275° West 364 419 40,000  Level Minneapolis Center
Sun 12:00:38 PM 45.6586 -100.3306 274° West 365 420 40,000  Level Minneapolis Center
Sun 12:01:52 PM 45.6700 -100.5336 275° West 368 423 40,000  Level Minneapolis Center
Sun 12:02:55 PM 45.6792 -100.7078 274° West 367 422 40,000  Level Minneapolis Center
Sun 12:03:57 PM 45.6856 -100.8506 274° West 363 418 40,000  Level Minneapolis Center
Sun 12:04:59 PM 45.6919 -100.9947 274° West 365 420 40,000  Level Minneapolis Center
Sun 12:06:01 PM 45.6992 -101.1389 274° West 365 420 40,000  Level Minneapolis Center
Sun 12:07:15 PM 45.7061 -101.2847 274° West 367 422 40,000  Level Minneapolis Center
Sun 12:08:18 PM 45.7156 -101.4842 274° West 362 417 40,000  Level Minneapolis Center
Sun 12:09:20 PM 45.7231 -101.6275 274° West 362 417 40,000  Level Minneapolis Center
Sun 12:10:22 PM 45.7289 -101.7708 273° West 362 417 40,000  Level Minneapolis Center
Sun 12:11:24 PM 45.7361 -101.9150 274° West 363 418 40,000  Level Minneapolis Center
Sun 12:12:26 PM 45.7417 -102.0594 273° West 364 419 40,000  Level Minneapolis Center
Sun 12:13:28 PM 45.7478 -102.2331 273° West 364 419 40,000  Level Minneapolis Center
Sun 12:14:30 PM 45.7533 -102.3772 273° West 364 419 40,000  Level Minneapolis Center
Sun 12:15:45 PM 45.7592 -102.5511 273° West 365 420 40,000  Level Minneapolis Center
Sun 12:16:47 PM 45.7636 -102.6889 273° West 365 420 40,000  Level Minneapolis Center
Sun 12:17:49 PM 45.7692 -102.8344 273° West 366 421 40,000  Level Minneapolis Center
Sun 12:18:51 PM 45.7750 -103.0086 273° West 366 421 40,000  Level Minneapolis Center
Sun 12:19:53 PM 45.7783 -103.1547 272° West 366 421 40,000  Level Minneapolis Center
Sun 12:20:55 PM 45.7833 -103.3003 273° West 367 422 40,000  Level Minneapolis Center
Sun 12:21:57 PM 45.7872 -103.4458 272° West 366 421 40,000  Level Minneapolis Center
Sun 12:22:59 PM 45.7906 -103.5928 272° West 368 423 40,000  Level Minneapolis Center
Sun 12:24:14 PM 45.7933 -103.7656 271° West 367 422 40,000  Level Salt Lake Center
Sun 12:25:16 PM 45.7981 -103.9425 272° West 369 425 40,000  Level Salt Lake Center
Sun 12:26:18 PM 45.8008 -104.0883 272° West 368 423 40,000  Level Salt Lake Center
Sun 12:27:20 PM 45.8042 -104.2344 272° West 368 423 40,000  Level Salt Lake Center
Sun 12:28:22 PM 45.8069 -104.3806 272° West 368 423 40,000  Level Salt Lake Center
Sun 12:29:26 PM 45.8094 -104.5383 271° West 364 419 40,000  Level Salt Lake Center
Sun 12:30:26 PM 45.8128 -104.6850 272° West 368 423 40,000  Level Salt Lake Center
Sun 12:31:28 PM 45.8144 -104.8319 271° West 370 426 40,000  Level Salt Lake Center
Sun 12:32:30 PM 45.8169 -104.9803 271° West 373 429 40,000  Level Salt Lake Center
Sun 12:33:32 PM 45.8186 -105.1567 271° West 371 427 40,000  Level Salt Lake Center
Sun 12:34:34 PM 45.8208 -105.3053 271° West 374 430 40,000  Level Salt Lake Center
Sun 12:35:36 PM 45.8228 -105.4525 271° West 374 430 40,000  Level Salt Lake Center
Sun 12:36:38 PM 45.8239 -105.6011 271° West 374 430 40,000  Level Salt Lake Center
Sun 12:37:40 PM 45.8239 -105.7494 270° West 374 430 40,000  Level Salt Lake Center
Sun 12:38:42 PM 45.8203 -105.8933 268° West 367 422 40,000  Level Salt Lake Center
Sun 12:39:44 PM 45.8219 -106.0742 271° West 375 432 40,000  Level Salt Lake Center
Sun 12:40:46 PM 45.8239 -106.2258 271° West 381 438 40,000  Level Salt Lake Center
Sun 12:41:48 PM 45.8244 -106.3775 270° West 383 441 40,000  Level Salt Lake Center
Sun 12:42:50 PM 45.8256 -106.5300 271° West 384 442 40,000  Level Salt Lake Center
Sun 12:43:52 PM 45.8267 -106.6836 271° West 386 444 40,000  Level Salt Lake Center
Sun 12:44:54 PM 45.8275 -106.8692 270° West 389 448 40,000  Level Salt Lake Center
Sun 12:45:56 PM 45.8269 -107.0225 270° West 390 449 40,000  Level Salt Lake Center
Sun 12:46:58 PM 45.8258 -107.1764 269° West 389 448 40,000  Level Salt Lake Center
Sun 12:48:00 PM 45.8250 -107.3297 270° West 387 445 40,000  Level Salt Lake Center
Sun 12:49:02 PM 45.8244 -107.4842 270° West 390 449 40,000  Level Salt Lake Center
Sun 12:50:05 PM 45.8225 -107.6681 269° West 388 447 40,000  Level Salt Lake Center
Sun 12:51:07 PM 45.8203 -107.8217 269° West 388 447 40,000  Level Salt Lake Center
Sun 12:52:09 PM 45.8183 -107.9758 269° West 390 449 40,000  Level Salt Lake Center
Sun 12:53:11 PM 45.8164 -108.1317 269° West 394 453 40,000  Level Salt Lake Center
Sun 12:54:13 PM 45.8142 -108.2847 269° West 389 448 40,000  Level Salt Lake Center
Sun 12:55:15 PM 45.8117 -108.4414 269° West 394 453 40,000  Level Salt Lake Center
Sun 12:56:17 PM 45.8089 -108.6339 269° West 402 463 40,000 -960 Level Salt Lake Center
Sun 12:57:20 PM 45.8000 -108.7886 265° West 395 455 38,000 -1,887 Descending Salt Lake Center
Sun 12:58:21 PM 45.7925 -108.9369 266° West 379 436 36,100 -1,902 Descending Salt Lake Center
Sun 12:59:23 PM 45.7842 -109.0894 266° West 386 444 34,100 -1,935 Descending Salt Lake Center
Sun 01:00:25 PM 45.7756 -109.2472 266° West 398 458 32,100 -2,177 Descending Salt Lake Center
Sun 01:01:27 PM 45.7650 -109.4425 266° West 414 476 29,600 -2,177 Descending Salt Lake Center
Sun 01:02:29 PM 45.7553 -109.6044 265° West 411 473 27,600 -1,952 Descending Salt Lake Center
Sun 01:03:33 PM 45.7461 -109.7661 265° West 411 473 25,500 -2,129 Descending Salt Lake Center
Sun 01:04:33 PM 45.7361 -109.9242 265° West 404 465 23,200 -2,459 Descending Salt Lake Center
Sun 01:05:35 PM 45.7256 -110.0767 264° West 392 451 20,500 -2,903 Descending Salt Lake Center
Sun 01:06:37 PM 45.7144 -110.2558 265° West 382 440 17,200 -2,661 Descending Salt Lake Center
Sun 01:07:39 PM 45.7044 -110.3992 264° West 370 426 15,000 -1,065 Descending Salt Lake Center
Sun 01:08:41 PM 45.6917 -110.5383 263° West 359 413 15,000 -97 Level Salt Lake Center
Sun 01:09:43 PM 45.6767 -110.6706 261° West 358 412 14,800 -1,210 Descending Salt Lake Center
Sun 01:10:45 PM 45.6617 -110.8036 261° West 341 392 12,500 -1,355 Descending Salt Lake Center
Sun 01:11:47 PM 45.6606 -110.9294 269° West 276 318 12,000 -290 Descending Salt Lake Center
Sun 01:12:49 PM 45.7122 -110.9906 320° Northwest 248 285 11,900 -624 Descending Salt Lake Center
Sun 01:13:52 PM 45.7656 -111.0431 326° Northwest 238 274 10,700 -1,728 Descending Salt Lake Center
Sun 01:14:54 PM 45.8044 -111.0997 315° West 216 249 8,300 -2,274 Descending Salt Lake Center
Sun 01:15:56 PM 45.8344 -111.1706 301° West 190 219 6,000 -1,645 Descending Salt Lake Center
Sun 01:16:58 PM 45.8036 -111.1864 200° South 164 189 4,900 -1,065 Descending Salt Lake Center

Login

Don't have an account? Register now (free) for customized features, flight alerts, and more!